الصفحة الرئيسية
METAR-TAF:

METAR-TAF

مطار :

مدينة بنما, بنما

دائرة عرض: 08-59N, خط طول: 079-31W, ارتفاع: 13 متر

مراقبة الطقس الحالي

تاريخ ووقت الإصدار 33 دقيقة قبل الساعة 02:00UTC
ريح 3 عقدة من الغرب/الشمال الغربي
درجة الحرارة 27°درجة مئوية
الرطوبة 89%
ضغط 1010 hPa
الرؤية 10 كم أو أكثر
غيوم متفرقة على ارتفاع 1700 قدم

METAR: MPMG 260200Z 30003KT 9999 SCT017 27/25 Q1010 NOSIG

زمن: 21:33 (02:33 UTC)

توقعات

تاريخ ووقت الإصدار 4ساعات و 33 دقيقة قبل الساعة 22:00UTC
التوقعات صالحة من26 الساعة 00 UTC إلى 26 الساعة 12 UTC
ريح 6 عقدة من الجنوب/الجنوب الشرقي
الرؤية: 9000 متر
غيوم قليلة على ارتفاع 1500 قدم, مزنة ركامية.
غيوم متفرقة على ارتفاع 8000 قدم
زخات في الجوار
نظرية الاحتمالات 30% :
مؤقت
من 26 الساعة 04 UTC إلى 26 الساعة 08 UTC
ريح 6 عقدة من الجنوب
الرؤية: 7000 متر
غيوم قليلة على ارتفاع 1300 قدم, مزنة ركامية.
عاصفة رعدية, مطر

TAF: MPMG 252200Z 2600/2612 16006KT 9000 VCSH FEW015CB SCT080 PROB30 TEMPO 2604/2608 18006KT 7000 TSRA FEW013CB

أرصاد الطقس والتوقعات من أكثر من 4000 مطار (تقارير الطقس للمطار METAR والتنبؤ بالطقس بالمطارTAF).

المحطات المتاحة هي النقط الصفراء والحمراء على الخريطة.

حرك المؤشر فوق النقطة لمعرفة اسم المحطة.

ثم انقر لمعرفة أرصاد وتوقعات الطقس.

لتغيير الخارطة: اضغط على الأزرار الخضراء مع رمز الصليب الأسود للتكبير. على الزر الأخضر مع شرطة للتصغير، أو على الأسهم الخضراء للخرائط المجاورة.


METAR-TAF: